Time;durP1;ratioP1;P1;durP2;ratioP2;P2;SDS_P1;SDS_P2;PMS_P1;PMS_P2;Temp;Humidity;BMP_temperature;BMP_pressure;BME280_temperature;BME280_humidity;BME280_pressure;Samples;Min_cycle;Max_cycle;Signal;HPM_P1;HPM_P2
2022/12/24 06:01:59;;;;;;;8.00;2.10;;;8.60;99.90;;;;;;5576373;23;20048;-78
2022/12/24 06:04:24;;;;;;;7.78;1.95;;;8.60;99.90;;;;;;4901980;29;20056;-78
2022/12/24 06:06:50;;;;;;;7.97;1.80;;;8.50;99.90;;;;;;4879812;29;20184;-78
2022/12/24 06:09:16;;;;;;;9.60;1.95;;;8.50;99.90;;;;;;4890166;29;20045;-78
2022/12/24 06:11:42;;;;;;;7.03;2.20;;;8.40;99.90;;;;;;4892688;29;20032;-78
2022/12/24 06:14:08;;;;;;;8.10;1.85;;;8.40;99.90;;;;;;4909563;29;20032;-78
2022/12/24 06:16:33;;;;;;;8.73;1.98;;;8.30;99.90;;;;;;4908435;29;20036;-78
2022/12/24 06:18:59;;;;;;;13.77;2.45;;;8.30;99.90;;;;;;4882969;29;20029;-78
2022/12/24 06:21:25;;;;;;;8.95;2.42;;;8.30;99.90;;;;;;4890270;29;20327;-79
2022/12/24 06:23:51;;;;;;;8.68;1.80;;;8.30;99.90;;;;;;4890710;29;20187;-78
2022/12/24 06:26:20;;;;;;;7.47;1.77;;;8.30;99.90;;;;;;4890421;29;20056;-79
2022/12/24 06:28:47;;;;;;;5.75;1.90;;;8.30;99.90;;;;;;4891206;29;20386;-79
2022/12/24 06:31:18;;;;;;;7.13;2.10;;;8.30;99.90;;;;;;4874753;29;20033;-79
2022/12/24 06:33:44;;;;;;;15.32;4.25;;;8.30;99.90;;;;;;4890813;29;20342;-78
2022/12/24 06:36:27;;;;;;;14.55;3.15;;;8.30;99.90;;;;;;4884287;29;20029;-79
2022/12/24 06:38:56;;;;;;;9.20;2.95;;;8.30;99.90;;;;;;4910493;29;20051;-78
2022/12/24 06:41:37;;;;;;;12.32;2.83;;;8.30;99.90;;;;;;4908703;29;20091;-79
2022/12/24 06:44:07;;;;;;;9.90;3.15;;;8.30;99.90;;;;;;4893197;29;20083;-79
2022/12/24 06:46:33;;;;;;;7.60;2.05;;;8.30;99.90;;;;;;4892324;29;20040;-78
2022/12/24 06:49:02;;;;;;;11.30;2.13;;;8.30;99.90;;;;;;4893140;29;20314;-79
2022/12/24 06:51:28;;;;;;;10.25;2.40;;;8.30;99.90;;;;;;4892705;29;20195;-79
2022/12/24 06:53:53;;;;;;;9.13;2.10;;;8.40;99.90;;;;;;4894193;29;20037;-79
2022/12/24 06:56:21;;;;;;;9.55;2.85;;;8.50;99.90;;;;;;4896337;29;20032;-79
2022/12/24 06:58:50;;;;;;;10.93;2.55;;;8.60;99.90;;;;;;4896406;29;20040;-78
2022/12/24 07:01:29;;;;;;;10.38;2.10;;;8.60;99.90;;;;;;4912470;29;20044;-79
2022/12/24 07:04:49;;;;;;;9.90;2.17;;;8.60;99.90;;;;;;4893609;29;20104;-77
2022/12/24 07:07:15;;;;;;;8.52;1.73;;;8.70;99.90;;;;;;4894036;29;20150;-79
2022/12/24 07:09:44;;;;;;;11.52;2.95;;;8.80;99.90;;;;;;4876665;29;20041;-79
2022/12/24 07:12:09;;;;;;;9.07;2.72;;;8.80;99.90;;;;;;4894145;29;20025;-79
2022/12/24 07:14:35;;;;;;;11.95;2.55;;;8.80;99.90;;;;;;4893699;29;20260;-79
2022/12/24 07:17:01;;;;;;;5.95;2.10;;;8.90;99.90;;;;;;4894647;29;20138;-79
2022/12/24 07:19:44;;;;;;;8.77;1.77;;;8.80;99.90;;;;;;4877348;29;20215;-79
2022/12/24 07:22:10;;;;;;;8.50;2.75;;;8.90;99.90;;;;;;4895163;29;20084;-79
2022/12/24 07:24:35;;;;;;;8.63;2.90;;;8.90;99.90;;;;;;4896093;29;20041;-79
2022/12/24 07:27:01;;;;;;;8.45;1.83;;;8.90;99.90;;;;;;4895402;29;20096;-80
2022/12/24 07:29:27;;;;;;;15.68;8.13;;;8.80;99.90;;;;;;4877302;29;20040;-80
2022/12/24 07:31:52;;;;;;;24.10;15.65;;;8.80;99.90;;;;;;4876049;29;20076;-81
2022/12/24 07:34:21;;;;;;;12.23;4.97;;;8.80;99.90;;;;;;4875320;29;20064;-80
2022/12/24 07:36:47;;;;;;;10.23;2.45;;;8.80;99.90;;;;;;4897976;29;20039;-80
2022/12/24 07:39:13;;;;;;;10.32;2.50;;;8.80;99.90;;;;;;4893509;29;20306;-79
2022/12/24 07:41:39;;;;;;;11.00;2.47;;;8.90;99.90;;;;;;4892957;29;20063;-79
2022/12/24 07:44:06;;;;;;;7.82;2.78;;;8.90;99.90;;;;;;4909945;29;20059;-80
2022/12/24 07:46:31;;;;;;;7.28;2.80;;;8.90;99.90;;;;;;4909410;29;20028;-79
2022/12/24 07:48:57;;;;;;;10.57;2.50;;;8.90;99.90;;;;;;4892809;29;20287;-78
2022/12/24 07:51:23;;;;;;;9.48;3.72;;;8.90;99.90;;;;;;4892069;29;20060;-80
2022/12/24 07:53:52;;;;;;;11.55;2.97;;;8.90;99.90;;;;;;4909455;29;20337;-81
2022/12/24 07:56:17;;;;;;;9.75;2.30;;;9.00;99.90;;;;;;4876811;29;20317;-80
2022/12/24 07:58:43;;;;;;;10.10;2.85;;;9.10;99.90;;;;;;4892339;29;20031;-79
2022/12/24 08:01:09;;;;;;;9.27;2.03;;;9.30;99.90;;;;;;4892280;29;20052;-79
2022/12/24 08:03:35;;;;;;;9.95;2.58;;;9.40;99.90;;;;;;4884776;29;20069;-80
2022/12/24 08:06:01;;;;;;;8.45;1.92;;;9.60;99.90;;;;;;4885390;29;20057;-79
2022/12/24 08:08:27;;;;;;;11.38;2.63;;;9.70;99.90;;;;;;4855036;29;20037;-79
2022/12/24 08:10:52;;;;;;;7.68;1.90;;;9.80;99.90;;;;;;4871665;29;20029;-79
2022/12/24 08:13:18;;;;;;;10.60;2.22;;;9.80;99.90;;;;;;4871838;29;20037;-78
2022/12/24 08:15:44;;;;;;;8.02;2.05;;;9.80;99.90;;;;;;4872127;29;20202;-79
2022/12/24 08:18:11;;;;;;;7.47;2.08;;;9.90;99.90;;;;;;4871736;29;20345;-79
2022/12/24 08:20:38;;;;;;;10.32;2.03;;;9.90;99.90;;;;;;4855579;29;20290;-78
2022/12/24 08:23:05;;;;;;;11.60;2.00;;;9.90;99.90;;;;;;4855416;29;20056;-78
2022/12/24 08:25:31;;;;;;;9.82;1.73;;;10.00;99.90;;;;;;4872316;29;20086;-78
2022/12/24 08:27:57;;;;;;;8.52;1.73;;;10.00;99.90;;;;;;4871273;29;20335;-77
2022/12/24 08:30:23;;;;;;;8.13;2.20;;;10.00;99.90;;;;;;4870814;29;20033;-79
2022/12/24 08:32:48;;;;;;;8.15;1.80;;;10.10;99.90;;;;;;4855054;29;20271;-78
2022/12/24 08:35:14;;;;;;;6.55;2.08;;;10.10;99.90;;;;;;4871319;29;20033;-78
2022/12/24 08:37:40;;;;;;;9.27;1.77;;;10.20;99.90;;;;;;4871097;29;20040;-78
2022/12/24 08:40:08;;;;;;;10.93;1.75;;;10.30;99.90;;;;;;4871522;29;20080;-79
2022/12/24 08:42:36;;;;;;;7.80;2.50;;;10.30;99.90;;;;;;4870573;29;20116;-80
2022/12/24 08:45:01;;;;;;;11.13;2.13;;;10.30;99.90;;;;;;4871636;29;20037;-79
2022/12/24 08:47:27;;;;;;;10.02;1.90;;;10.30;99.90;;;;;;4869221;29;20366;-79
2022/12/24 08:49:56;;;;;;;6.00;1.90;;;10.30;99.90;;;;;;4870947;29;20044;-79
2022/12/24 08:52:22;;;;;;;10.05;2.08;;;10.30;99.90;;;;;;4869699;29;20102;-79
2022/12/24 08:54:48;;;;;;;6.57;1.73;;;10.20;99.90;;;;;;4885213;29;20057;-78
2022/12/24 08:57:13;;;;;;;9.68;2.25;;;10.30;99.90;;;;;;4871029;29;20319;-78
2022/12/24 08:59:39;;;;;;;7.93;1.88;;;10.30;99.90;;;;;;4870398;29;20034;-78
2022/12/24 09:02:05;;;;;;;10.25;2.17;;;10.30;99.90;;;;;;4876590;29;20234;-77
2022/12/24 09:04:31;;;;;;;12.82;2.45;;;10.40;99.90;;;;;;4888030;29;20226;-78
2022/12/24 09:06:56;;;;;;;11.63;2.75;;;10.50;99.90;;;;;;4872452;29;20041;-77
2022/12/24 09:09:22;;;;;;;12.48;2.80;;;10.50;99.90;;;;;;4888597;29;20096;-77
2022/12/24 09:11:48;;;;;;;11.82;2.50;;;10.60;99.90;;;;;;4871891;29;20331;-80
2022/12/24 09:14:13;;;;;;;8.05;1.73;;;10.60;99.90;;;;;;4872090;29;20025;-80
2022/12/24 09:16:39;;;;;;;11.88;2.25;;;10.70;99.90;;;;;;4887852;29;20024;-77
2022/12/24 09:19:05;;;;;;;10.38;2.38;;;10.80;99.90;;;;;;4888507;29;20067;-76
2022/12/24 09:21:31;;;;;;;9.13;2.03;;;10.90;99.90;;;;;;4888157;29;20028;-77
2022/12/24 09:23:59;;;;;;;9.70;1.98;;;10.90;99.90;;;;;;4888362;29;20074;-77
2022/12/24 09:26:26;;;;;;;10.07;2.00;;;10.90;99.90;;;;;;4871203;29;20043;-78
2022/12/24 09:28:52;;;;;;;8.45;1.77;;;11.00;99.90;;;;;;4888473;29;20342;-77
2022/12/24 09:31:18;;;;;;;13.73;2.58;;;11.10;99.90;;;;;;4871638;29;20025;-77
2022/12/24 09:33:46;;;;;;;9.35;2.20;;;11.20;99.90;;;;;;4887889;29;20278;-76
2022/12/24 09:36:13;;;;;;;7.00;1.92;;;11.20;99.90;;;;;;4888319;29;20046;-77
2022/12/24 09:38:41;;;;;;;10.68;2.45;;;11.30;99.90;;;;;;4887752;29;20060;-77
2022/12/24 09:41:30;;;;;;;11.05;2.05;;;11.20;99.90;;;;;;4888337;29;20033;-77
2022/12/24 09:44:06;;;;;;;12.45;2.00;;;11.20;99.90;;;;;;4888142;29;20072;-78
2022/12/24 09:46:41;;;;;;;8.80;1.70;;;11.20;99.90;;;;;;4887542;29;20187;-76
2022/12/24 09:49:14;;;;;;;7.97;2.03;;;11.20;99.90;;;;;;4871768;29;20045;-77
2022/12/24 09:51:46;;;;;;;12.95;2.88;;;11.30;99.90;;;;;;4887714;29;20029;-77
2022/12/24 09:54:29;;;;;;;12.68;1.83;;;11.20;99.90;;;;;;4887660;29;20251;-76
2022/12/24 09:57:00;;;;;;;13.07;2.72;;;11.20;99.90;;;;;;4871419;29;20094;-78
2022/12/24 09:59:38;;;;;;;10.77;2.53;;;11.20;99.90;;;;;;4887801;29;20387;-76
2022/12/24 10:02:10;;;;;;;9.15;2.05;;;11.30;99.90;;;;;;4887716;29;20041;-77
2022/12/24 10:04:36;;;;;;;10.93;1.88;;;11.50;99.90;;;;;;4894256;29;20036;-77
2022/12/24 10:07:38;;;;;;;8.52;2.03;;;11.60;99.90;;;;;;4873374;29;20064;-76
2022/12/24 10:10:10;;;;;;;8.73;2.05;;;11.80;99.90;;;;;;4889882;29;20036;-76
2022/12/24 10:13:07;;;;;;;11.05;2.40;;;11.90;99.90;;;;;;4887350;29;20175;-76
2022/12/24 10:15:39;;;;;;;10.38;1.70;;;12.00;99.90;;;;;;4887353;29;20084;-77
2022/12/24 10:18:29;;;;;;;8.18;1.75;;;12.10;99.90;;;;;;4887900;29;20040;-77
2022/12/24 10:21:10;;;;;;;10.10;1.90;;;12.30;99.90;;;;;;4898091;29;20095;-76
2022/12/24 10:24:16;;;;;;;7.45;1.63;;;12.40;99.90;;;;;;4906337;29;20044;-79
2022/12/24 10:26:49;;;;;;;7.60;1.90;;;12.50;99.90;;;;;;4888379;29;20036;-78
2022/12/24 10:29:35;;;;;;;8.35;2.10;;;12.60;99.90;;;;;;4908544;29;20047;-77
2022/12/24 10:32:07;;;;;;;7.32;1.92;;;12.50;99.90;;;;;;4874309;29;20030;-74
2022/12/24 10:35:07;;;;;;;10.57;1.80;;;12.50;99.90;;;;;;4871917;29;20101;-73
2022/12/24 10:37:33;;;;;;;8.90;1.88;;;12.50;99.90;;;;;;4890655;29;20086;-75
2022/12/24 10:40:01;;;;;;;9.48;2.17;;;12.50;99.90;;;;;;4892982;29;20346;-72
2022/12/24 10:42:41;;;;;;;7.00;1.58;;;12.50;99.90;;;;;;4909788;29;20079;-73
2022/12/24 10:45:15;;;;;;;8.82;1.73;;;12.40;99.90;;;;;;4892935;29;20174;-74
2022/12/24 10:47:43;;;;;;;7.30;1.70;;;12.50;99.90;;;;;;4909232;29;20028;-74
2022/12/24 10:50:23;;;;;;;14.02;2.58;;;12.50;99.90;;;;;;4897011;29;20044;-73
2022/12/24 10:52:54;;;;;;;9.05;1.80;;;12.60;99.90;;;;;;4894794;29;20033;-74
2022/12/24 10:55:27;;;;;;;8.25;2.25;;;12.60;99.90;;;;;;4909214;29;20099;-80
2022/12/24 10:58:21;;;;;;;9.20;1.95;;;12.70;99.90;;;;;;4862363;29;20105;-78
2022/12/24 11:00:54;;;;;;;11.07;2.23;;;12.70;99.90;;;;;;4840609;29;20302;-79
2022/12/24 11:03:59;;;;;;;11.20;2.35;;;12.70;99.90;;;;;;4883536;29;20528;-79
2022/12/24 11:06:26;;;;;;;9.27;2.00;;;12.70;99.90;;;;;;4912803;29;20326;-78
2022/12/24 11:08:51;;;;;;;5.53;1.75;;;12.80;99.90;;;;;;4896080;29;20029;-78
2022/12/24 11:11:20;;;;;;;9.45;1.80;;;12.70;99.90;;;;;;4879346;29;20187;-77
2022/12/24 11:13:49;;;;;;;11.13;1.95;;;12.80;99.90;;;;;;4895506;29;20033;-78
2022/12/24 11:16:35;;;;;;;8.05;2.22;;;12.70;99.90;;;;;;4894548;29;20048;-78
2022/12/24 11:19:03;;;;;;;7.78;1.67;;;12.60;99.90;;;;;;4876469;29;20028;-78
2022/12/24 11:21:39;;;;;;;7.35;1.73;;;12.50;99.90;;;;;;4894088;29;20176;-78
2022/12/24 11:24:11;;;;;;;8.25;1.85;;;12.40;99.90;;;;;;4910368;29;20029;-77
2022/12/24 11:26:42;;;;;;;11.55;2.13;;;12.40;99.90;;;;;;4889862;29;20029;-78
2022/12/24 11:29:14;;;;;;;13.60;2.65;;;12.30;99.90;;;;;;4893791;29;20080;-78
2022/12/24 11:31:43;;;;;;;10.18;2.50;;;12.20;99.90;;;;;;4893490;29;20028;-78
2022/12/24 11:34:28;;;;;;;11.13;2.17;;;12.20;99.90;;;;;;4893247;29;20108;-78
2022/12/24 11:37:24;;;;;;;7.13;1.75;;;12.30;99.90;;;;;;4892480;29;20029;-78
2022/12/24 11:39:52;;;;;;;6.53;2.03;;;12.30;99.90;;;;;;4892967;29;20099;-77
2022/12/24 11:42:35;;;;;;;7.80;2.10;;;12.40;99.90;;;;;;4889926;29;20069;-77
2022/12/24 11:45:16;;;;;;;9.40;1.88;;;12.50;99.90;;;;;;4872279;29;20049;-77
2022/12/24 11:47:42;;;;;;;7.05;1.90;;;12.60;99.90;;;;;;4890090;29;20100;-77
2022/12/24 11:50:34;;;;;;;8.80;2.20;;;12.80;99.90;;;;;;4889964;29;20077;-78
2022/12/24 11:53:10;;;;;;;10.13;1.80;;;13.00;99.90;;;;;;4889984;29;20084;-76
2022/12/24 11:55:45;;;;;;;12.57;2.38;;;13.10;99.90;;;;;;4889820;29;20036;-76
2022/12/24 11:58:39;;;;;;;8.80;1.65;;;13.20;99.90;;;;;;4904919;29;20298;-76
2022/12/24 12:01:33;;;;;;;12.65;2.20;;;13.30;99.90;;;;;;4892608;29;20080;-76
2022/12/24 12:04:20;;;;;;;6.90;1.85;;;13.40;99.90;;;;;;4901243;29;20066;-76
2022/12/24 12:06:57;;;;;;;9.85;2.03;;;13.40;99.90;;;;;;4889413;29;20032;-77
2022/12/24 12:09:44;;;;;;;11.52;2.00;;;13.30;99.90;;;;;;4889498;29;20226;-76
2022/12/24 12:12:20;;;;;;;9.25;1.73;;;13.30;99.90;;;;;;4901402;29;20033;-76
2022/12/24 12:14:52;;;;;;;12.68;2.40;;;13.30;99.90;;;;;;4892397;29;20071;-75
2022/12/24 12:17:35;;;;;;;6.82;1.60;;;13.50;99.90;;;;;;4909796;29;20288;-76
2022/12/24 12:20:31;;;;;;;8.38;2.42;;;13.60;99.90;;;;;;4909890;29;20033;-77
2022/12/24 12:23:09;;;;;;;8.57;1.80;;;13.60;99.90;;;;;;4880938;29;20047;-77
2022/12/24 12:25:46;;;;;;;10.35;2.60;;;13.60;99.90;;;;;;4855487;29;20282;-76
2022/12/24 12:28:21;;;;;;;10.57;2.67;;;13.60;99.90;;;;;;4872319;29;20041;-77
2022/12/24 12:31:08;;;;;;;7.40;2.05;;;13.50;99.90;;;;;;4871702;29;20044;-79
2022/12/24 12:33:40;;;;;;;8.32;2.22;;;13.50;99.90;;;;;;4864827;29;20037;-79
2022/12/24 12:36:09;;;;;;;8.88;1.80;;;13.40;99.90;;;;;;4871279;29;20037;-78
2022/12/24 12:38:35;;;;;;;9.50;2.05;;;13.40;99.90;;;;;;4872181;29;20093;-78
2022/12/24 12:41:30;;;;;;;8.93;1.90;;;13.30;99.90;;;;;;4873872;29;20025;-78
2022/12/24 12:44:18;;;;;;;11.65;1.98;;;13.20;99.90;;;;;;4872817;29;20248;-76
2022/12/24 12:47:10;;;;;;;10.98;2.33;;;13.30;99.90;;;;;;4872113;29;20278;-77
2022/12/24 12:49:58;;;;;;;9.48;2.22;;;13.40;99.90;;;;;;4873888;29;20033;-77
2022/12/24 12:52:46;;;;;;;10.43;2.30;;;13.50;99.90;;;;;;4877990;29;20034;-77
2022/12/24 12:55:30;;;;;;;9.75;2.28;;;13.50;99.90;;;;;;4901548;29;20029;-78
2022/12/24 12:58:02;;;;;;;9.88;2.15;;;13.50;99.90;;;;;;4907680;29;20036;-78
2022/12/24 13:00:32;;;;;;;8.60;2.13;;;13.70;99.90;;;;;;4909695;29;20060;-78
2022/12/24 13:03:14;;;;;;;9.05;1.90;;;13.70;99.90;;;;;;4907578;29;20161;-76
2022/12/24 13:06:21;;;;;;;9.60;2.17;;;14.00;99.90;;;;;;4889513;29;20044;-76
2022/12/24 13:09:06;;;;;;;7.50;1.60;;;14.20;99.90;;;;;;4873492;29;20028;-77
2022/12/24 13:11:52;;;;;;;8.70;1.92;;;14.50;99.90;;;;;;4869992;29;20033;-77
2022/12/24 13:14:54;;;;;;;10.77;2.65;;;14.90;99.90;;;;;;4857312;29;20280;-79
2022/12/24 13:17:45;;;;;;;8.18;2.55;;;15.40;99.90;;;;;;4855452;29;20038;-78
2022/12/24 13:20:24;;;;;;;9.75;3.75;;;15.80;99.90;;;;;;4870287;29;20326;-77
2022/12/24 13:22:58;;;;;;;13.65;4.47;;;15.60;99.90;;;;;;4870612;29;20278;-77
2022/12/24 13:25:37;;;;;;;16.48;5.93;;;15.60;99.90;;;;;;4871536;29;20044;-77
2022/12/24 13:28:29;;;;;;;17.58;5.75;;;15.50;99.90;;;;;;4871121;29;20042;-76
2022/12/24 13:31:01;;;;;;;14.35;4.35;;;15.40;99.90;;;;;;4871888;29;20025;-77
2022/12/24 13:33:35;;;;;;;10.05;3.70;;;15.10;99.90;;;;;;4872486;29;20041;-77
2022/12/24 13:36:09;;;;;;;10.88;3.58;;;15.10;99.90;;;;;;4871597;29;20096;-77
2022/12/24 13:38:43;;;;;;;13.95;3.88;;;15.20;99.90;;;;;;4871927;29;20207;-76
2022/12/24 13:41:33;;;;;;;11.68;2.53;;;15.20;99.90;;;;;;4855344;29;20033;-77
2022/12/24 13:44:05;;;;;;;11.70;3.45;;;15.30;99.90;;;;;;4846709;29;20046;-77
2022/12/24 13:47:04;;;;;;;14.60;2.88;;;15.30;99.90;;;;;;4857594;29;20033;-77
2022/12/24 13:49:40;;;;;;;11.20;3.17;;;15.10;99.90;;;;;;4874374;29;20060;-76
2022/12/24 13:52:13;;;;;;;13.52;3.72;;;15.00;99.90;;;;;;4873751;29;20084;-77
2022/12/24 13:54:46;;;;;;;8.38;2.60;;;14.90;99.90;;;;;;4872914;29;20231;-78
2022/12/24 13:57:39;;;;;;;13.60;3.22;;;14.80;99.90;;;;;;4875202;29;20029;-76
2022/12/24 14:00:26;;;;;;;11.32;2.42;;;14.40;99.90;;;;;;4873791;29;20052;-77
2022/12/24 14:03:13;;;;;;;10.48;2.35;;;14.30;99.90;;;;;;4888672;29;20049;-79
2022/12/24 14:05:49;;;;;;;12.25;3.20;;;14.10;99.90;;;;;;4894672;29;20044;-76
2022/12/24 14:08:27;;;;;;;14.05;3.05;;;14.10;99.90;;;;;;4878085;29;20147;-78
2022/12/24 14:10:59;;;;;;;;;;;14.00;99.90;;;;;;4893509;29;20355;-78
2022/12/24 14:13:37;;;;;;;9.77;2.90;;;14.00;99.90;;;;;;4876340;29;19979;-77
2022/12/24 14:16:04;;;;;;;9.73;3.25;;;14.00;99.90;;;;;;4875659;29;20045;-76
2022/12/24 14:18:34;;;;;;;9.18;2.67;;;14.00;99.90;;;;;;4893672;29;20033;-75
2022/12/24 14:21:00;;;;;;;9.93;3.10;;;14.00;99.90;;;;;;4894116;29;20037;-75
2022/12/24 14:23:50;;;;;;;12.43;2.90;;;14.00;99.90;;;;;;4894653;29;20327;-75
2022/12/24 14:26:20;;;;;;;7.78;2.55;;;13.90;99.90;;;;;;4896009;29;20287;-76
2022/12/24 14:28:53;;;;;;;8.57;2.88;;;13.90;99.90;;;;;;4897040;29;20311;-76
2022/12/24 14:31:20;;;;;;;9.27;2.75;;;13.90;99.90;;;;;;4896539;29;20036;-76
2022/12/24 14:33:46;;;;;;;14.50;3.85;;;13.80;99.90;;;;;;4894999;29;20036;-77
2022/12/24 14:36:15;;;;;;;13.82;3.85;;;13.70;99.90;;;;;;4892024;29;20338;-77
2022/12/24 14:38:43;;;;;;;12.27;4.25;;;13.60;99.90;;;;;;4891576;29;20032;-77
2022/12/24 14:41:41;;;;;;;13.98;4.22;;;13.50;99.90;;;;;;4891115;29;20029;-76
2022/12/24 14:44:18;;;;;;;10.82;3.90;;;13.40;99.90;;;;;;4874079;29;20112;-76
2022/12/24 14:47:00;;;;;;;16.25;3.42;;;13.20;99.90;;;;;;4874209;29;20041;-76
2022/12/24 14:49:58;;;;;;;11.45;3.38;;;13.10;99.90;;;;;;4891310;29;20101;-74
2022/12/24 14:52:47;;;;;;;16.23;4.18;;;13.00;99.90;;;;;;4893239;29;20118;-75
2022/12/24 14:55:39;;;;;;;12.60;4.28;;;12.70;99.90;;;;;;4892587;29;20037;-76
2022/12/24 14:58:30;;;;;;;16.08;4.85;;;12.60;99.90;;;;;;4891986;29;20044;-77
2022/12/24 15:01:19;;;;;;;13.75;4.15;;;12.40;99.90;;;;;;4889642;29;20350;-76
2022/12/24 15:04:18;;;;;;;14.55;4.53;;;12.30;99.90;;;;;;4897360;29;20360;-76
2022/12/24 15:06:56;;;;;;;17.95;5.03;;;12.10;99.90;;;;;;4893423;29;20028;-76
2022/12/24 15:09:29;;;;;;;13.73;5.03;;;12.00;99.90;;;;;;4876357;29;20267;-76
2022/12/24 15:11:58;;;;;;;18.55;5.95;;;11.90;99.90;;;;;;4909848;29;20048;-75
2022/12/24 15:14:27;;;;;;;22.10;5.63;;;11.80;99.90;;;;;;4909053;29;20333;-75
2022/12/24 15:16:57;;;;;;;;;;;11.80;99.90;;;;;;4909786;29;20037;-77
2022/12/24 15:19:35;;;;;;;16.05;5.38;;;11.70;99.90;;;;;;4910585;29;19918;-77
2022/12/24 15:22:06;;;;;;;31.75;16.05;;;11.60;99.90;;;;;;4877258;29;20037;-73
2022/12/24 15:24:35;;;;;;;20.80;6.93;;;11.50;99.90;;;;;;4892659;29;20044;-77
2022/12/24 15:27:02;;;;;;;;;;;11.50;99.90;;;;;;4909628;29;20045;-75
2022/12/24 15:29:37;;;;;;;12.85;5.07;;;11.40;99.90;;;;;;4892326;29;19946;-77
2022/12/24 15:32:06;;;;;;;19.95;6.47;;;11.40;99.90;;;;;;4908976;29;20047;-76
2022/12/24 15:34:37;;;;;;;14.68;5.05;;;11.30;99.90;;;;;;4909062;29;20044;-76
2022/12/24 15:37:09;;;;;;;20.42;6.95;;;11.30;99.90;;;;;;4908711;29;20218;-76
2022/12/24 15:39:38;;;;;;;16.88;5.38;;;11.20;99.90;;;;;;4908670;29;20047;-76
2022/12/24 15:42:14;;;;;;;17.10;5.43;;;11.10;99.90;;;;;;4908341;29;20044;-76
2022/12/24 15:44:55;;;;;;;13.32;4.55;;;11.10;99.90;;;;;;4892107;29;20048;-76
2022/12/24 15:47:36;;;;;;;17.15;4.85;;;11.10;99.90;;;;;;4908855;29;20028;-76
2022/12/24 15:50:22;;;;;;;19.35;5.20;;;11.10;99.90;;;;;;4890680;29;20333;-76
2022/12/24 15:52:49;;;;;;;14.75;5.45;;;11.10;99.90;;;;;;4889043;29;20107;-74
2022/12/24 15:55:44;;;;;;;15.27;4.88;;;11.00;99.90;;;;;;4889748;29;20064;-75
2022/12/24 15:58:17;;;;;;;16.85;7.15;;;11.00;99.90;;;;;;4877657;29;20048;-76
2022/12/24 16:00:58;;;;;;;17.33;6.07;;;11.00;99.90;;;;;;4889949;29;20077;-76
2022/12/24 16:03:24;;;;;;;17.10;5.32;;;10.90;99.90;;;;;;4892834;29;20052;-75
2022/12/24 16:06:04;;;;;;;19.40;5.45;;;10.90;99.90;;;;;;4908025;29;20206;-76
2022/12/24 16:08:32;;;;;;;14.38;5.63;;;10.90;99.90;;;;;;4891850;29;20041;-77
2022/12/24 16:11:18;;;;;;;21.85;6.00;;;10.80;99.90;;;;;;4907796;29;20055;-76
2022/12/24 16:13:50;;;;;;;17.83;5.60;;;10.80;99.90;;;;;;4908690;29;20445;-77
2022/12/24 16:16:19;;;;;;;16.02;5.82;;;10.70;99.90;;;;;;4908308;29;20028;-76
2022/12/24 16:18:54;;;;;;;18.13;5.57;;;10.70;99.90;;;;;;4891546;29;20028;-77
2022/12/24 16:21:27;;;;;;;15.35;5.47;;;10.60;99.90;;;;;;4908011;29;20085;-78
2022/12/24 16:24:05;;;;;;;15.27;5.57;;;10.60;99.90;;;;;;4907807;29;20041;-78
2022/12/24 16:26:32;;;;;;;17.38;5.82;;;10.60;99.90;;;;;;4907348;29;20029;-79
2022/12/24 16:28:58;;;;;;;15.45;6.18;;;10.50;99.90;;;;;;4907867;29;20206;-79
2022/12/24 16:31:33;;;;;;;18.98;7.78;;;10.50;99.90;;;;;;4907856;29;20036;-78
2022/12/24 16:34:00;;;;;;;20.55;7.22;;;10.50;99.90;;;;;;4890889;29;20052;-77
2022/12/24 16:36:26;;;;;;;15.50;6.10;;;10.50;99.90;;;;;;4907784;29;20032;-79
2022/12/24 16:43:48;;;;;;;17.02;5.50;;;10.50;99.90;;;;;;4908265;29;20024;-78
2022/12/24 16:44:25;;;;;;;14.75;5.85;;;10.50;99.90;;;;;;4891214;29;20085;-79
2022/12/24 16:46:52;;;;;;;15.88;5.10;;;10.60;99.90;;;;;;4875678;29;20051;-77
2022/12/24 16:49:20;;;;;;;15.95;6.05;;;10.60;99.90;;;;;;4890223;29;20021;-78
2022/12/24 16:51:49;;;;;;;24.42;6.30;;;10.60;99.90;;;;;;4873211;29;20055;-78
2022/12/24 16:54:14;;;;;;;20.42;7.78;;;10.70;99.90;;;;;;4872156;29;20061;-74
2022/12/24 16:56:42;;;;;;;21.83;7.53;;;10.70;99.90;;;;;;4889278;29;20037;-78
2022/12/24 16:59:19;;;;;;;24.13;6.78;;;10.70;99.90;;;;;;4872235;29;20056;-78
2022/12/24 17:01:46;;;;;;;17.08;6.00;;;10.70;99.90;;;;;;4893917;29;20056;-80
2022/12/24 17:04:14;;;;;;;20.45;6.53;;;10.60;99.90;;;;;;4898389;29;20060;-76
2022/12/24 17:06:40;;;;;;;16.77;5.43;;;10.60;99.90;;;;;;4890986;29;20040;-78
2022/12/24 17:09:08;;;;;;;17.40;6.78;;;10.60;99.90;;;;;;4890327;29;20040;-77
2022/12/24 17:11:34;;;;;;;15.20;6.07;;;10.60;99.90;;;;;;4907171;29;20055;-78
2022/12/24 17:14:00;;;;;;;14.48;5.70;;;10.60;99.90;;;;;;4907678;29;20073;-76
2022/12/24 17:16:26;;;;;;;15.68;5.13;;;10.50;99.90;;;;;;4907768;29;20032;-78
2022/12/24 17:18:52;;;;;;;17.75;6.07;;;10.60;99.90;;;;;;4890889;29;20039;-77
2022/12/24 17:21:18;;;;;;;13.18;6.35;;;10.50;99.90;;;;;;4890848;29;20021;-77
2022/12/24 17:23:45;;;;;;;18.27;6.03;;;10.50;99.90;;;;;;4890553;29;20079;-76
2022/12/24 17:26:11;;;;;;;19.13;6.95;;;10.50;99.90;;;;;;4891032;29;20060;-78
2022/12/24 17:28:38;;;;;;;16.15;5.85;;;10.50;99.90;;;;;;4908275;29;20031;-78
2022/12/24 17:31:08;;;;;;;17.02;7.35;;;10.50;99.90;;;;;;4906801;29;20156;-78
2022/12/24 17:33:34;;;;;;;17.83;6.10;;;10.60;99.90;;;;;;4890519;29;20227;-79
2022/12/24 17:36:00;;;;;;;23.50;10.15;;;10.60;99.90;;;;;;4890089;29;20031;-80
2022/12/24 17:38:26;;;;;;;23.48;10.25;;;10.60;99.90;;;;;;4890511;29;20219;-78
2022/12/24 17:41:03;;;;;;;18.73;7.88;;;10.60;99.90;;;;;;4906821;29;20067;-78
2022/12/24 17:43:33;;;;;;;24.23;7.43;;;10.60;99.90;;;;;;4874981;29;20195;-75
2022/12/24 17:46:02;;;;;;;18.58;6.57;;;10.60;99.90;;;;;;4874118;29;20020;-78
2022/12/24 17:48:28;;;;;;;18.52;6.63;;;10.50;99.90;;;;;;4901699;29;20021;-76
2022/12/24 17:50:54;;;;;;;14.93;6.85;;;10.50;99.90;;;;;;4888139;29;20370;-78
2022/12/24 17:53:20;;;;;;;26.00;8.60;;;10.50;99.90;;;;;;4887843;29;20037;-77
2022/12/24 17:55:46;;;;;;;19.60;7.68;;;10.40;99.90;;;;;;4887731;29;20029;-79
2022/12/24 17:58:13;;;;;;;15.73;6.85;;;10.30;99.90;;;;;;4870788;29;20345;-77
2022/12/24 18:00:40;;;;;;;17.90;7.23;;;10.30;99.90;;;;;;4871367;29;20028;-78
2022/12/24 18:03:06;;;;;;;18.48;6.55;;;10.30;99.90;;;;;;4887719;29;20048;-78
2022/12/24 18:05:35;;;;;;;15.63;7.40;;;10.30;99.90;;;;;;4871231;29;20025;-78
2022/12/24 18:08:01;;;;;;;20.55;6.63;;;10.30;99.90;;;;;;4871206;29;20029;-79
2022/12/24 18:10:27;;;;;;;21.27;6.95;;;10.30;99.90;;;;;;4863270;29;20029;-77
2022/12/24 18:12:53;;;;;;;22.25;7.80;;;10.30;99.90;;;;;;4897832;29;20076;-74
2022/12/24 18:15:20;;;;;;;23.42;7.82;;;10.40;99.90;;;;;;4899445;29;20021;-75
2022/12/24 18:17:53;;;;;;;27.80;13.23;;;10.40;99.90;;;;;;4880459;29;20033;-76
2022/12/24 18:20:20;;;;;;;21.45;8.93;;;10.40;99.90;;;;;;4887631;29;20029;-75
2022/12/24 18:22:47;;;;;;;20.50;7.18;;;10.40;99.90;;;;;;4871140;29;20040;-76
2022/12/24 18:25:13;;;;;;;22.92;8.00;;;10.40;99.90;;;;;;4887295;29;20091;-77
2022/12/24 18:27:39;;;;;;;23.92;8.23;;;10.40;99.90;;;;;;4855830;29;20033;-76
2022/12/24 18:30:07;;;;;;;18.65;8.18;;;10.40;99.90;;;;;;4887648;29;20021;-78
2022/12/24 18:32:34;;;;;;;12.05;4.72;;;10.40;99.90;;;;;;4887747;29;20119;-77
2022/12/24 18:35:00;;;;;;;9.63;4.05;;;10.40;99.90;;;;;;4887079;29;20040;-76
2022/12/24 18:37:26;;;;;;;12.20;4.38;;;10.50;99.90;;;;;;4887878;29;20037;-78
2022/12/24 18:39:51;;;;;;;8.27;3.08;;;10.60;99.90;;;;;;4887908;29;20059;-77
2022/12/24 18:42:17;;;;;;;6.93;2.80;;;10.70;99.90;;;;;;4887350;29;20292;-77
2022/12/24 18:44:44;;;;;;;8.30;2.53;;;10.80;99.90;;;;;;4887343;29;20057;-79
2022/12/24 18:47:10;;;;;;;8.05;2.40;;;10.90;99.90;;;;;;4886800;29;20500;-77
2022/12/24 18:49:36;;;;;;;6.47;2.63;;;11.00;99.90;;;;;;4887737;29;20041;-78
2022/12/24 18:52:03;;;;;;;7.25;2.25;;;11.00;99.90;;;;;;4890489;29;20350;-79
2022/12/24 18:54:29;;;;;;;5.72;2.38;;;11.00;99.90;;;;;;4890775;29;20076;-78
2022/12/24 18:56:55;;;;;;;8.07;2.50;;;11.10;99.90;;;;;;4874349;29;20033;-78
2022/12/24 18:59:21;;;;;;;8.13;2.80;;;11.10;99.90;;;;;;4874067;29;20033;-78
2022/12/24 19:01:46;;;;;;;8.30;2.55;;;11.10;99.90;;;;;;4890771;29;20049;-79
2022/12/24 19:04:13;;;;;;;10.45;2.60;;;11.10;99.90;;;;;;4899940;29;20036;-78
2022/12/24 19:06:40;;;;;;;4.70;2.10;;;11.10;99.90;;;;;;4909550;29;20234;-78
2022/12/24 19:09:06;;;;;;;6.38;2.08;;;11.10;99.90;;;;;;4909179;29;20052;-77
2022/12/24 19:11:33;;;;;;;5.07;2.42;;;11.10;99.90;;;;;;4909557;29;20033;-79
2022/12/24 19:14:01;;;;;;;4.95;2.05;;;11.10;99.90;;;;;;4892852;29;20054;-79
2022/12/24 19:16:28;;;;;;;5.22;2.20;;;11.10;99.90;;;;;;4892688;29;20032;-78